B5623 CYQM-CYHZ
Flight info
| Callsign | B5623 |
|---|---|
| Flight time | 0h 56m |
| Altitude | 2000 |
| Route | NABIN Q951 OMVEV |
| Aircraft | C172/L-SDE2E3FGILRWXY/L1P |
Departure
| Time | 2026-04-25 14:36 |
|---|---|
| Airport | Greater Moncton Roméo LeBlanc International Airport (CYQM) |
Arrival
| Time | 2026-04-25 15:32 |
|---|---|
| Airport | Halifax / Stanfield International Airport (CYHZ) |
| Time | Latitude | Longitude | Altitude | Speed | Heading |
|---|---|---|---|---|---|
| 2026-04-25 14:22 | 46.10547 | -64.67465 | 205 ft | 0 kts | 359° |
| 2026-04-25 14:31 | 46.10546 | -64.67465 | 206 ft | 0 kts | 359° |
| 2026-04-25 14:31 | 46.10548 | -64.67465 | 206 ft | 0 kts | 358° |
| 2026-04-25 14:31 | 46.10550 | -64.67465 | 206 ft | 0 kts | 358° |
| 2026-04-25 14:32 | 46.10553 | -64.67465 | 206 ft | 1 kts | 358° |
| 2026-04-25 14:32 | 46.10573 | -64.67442 | 206 ft | 15 kts | 73° |
| 2026-04-25 14:32 | 46.10594 | -64.67252 | 204 ft | 18 kts | 86° |
| 2026-04-25 14:32 | 46.10596 | -64.67106 | 204 ft | 11 kts | 86° |
| 2026-04-25 14:33 | 46.10601 | -64.67006 | 202 ft | 7 kts | 90° |
| 2026-04-25 14:33 | 46.10605 | -64.66936 | 201 ft | 4 kts | 88° |
| 2026-04-25 14:33 | 46.10606 | -64.66803 | 200 ft | 12 kts | 86° |
| 2026-04-25 14:33 | 46.10611 | -64.66696 | 198 ft | 7 kts | 91° |
| 2026-04-25 14:34 | 46.10614 | -64.66552 | 195 ft | 16 kts | 82° |
| 2026-04-25 14:34 | 46.10643 | -64.66393 | 192 ft | 16 kts | 37° |
| 2026-04-25 14:34 | 46.10741 | -64.66332 | 192 ft | 16 kts | 347° |
| 2026-04-25 14:34 | 46.10772 | -64.66473 | 194 ft | 26 kts | 263° |
| 2026-04-25 14:35 | 46.10764 | -64.66989 | 213 ft | 70 kts | 277° |
| 2026-04-25 14:35 | 46.10731 | -64.67729 | 397 ft | 83 kts | 274° |
| 2026-04-25 14:35 | 46.10662 | -64.68613 | 576 ft | 94 kts | 269° |
| 2026-04-25 14:35 | 46.10557 | -64.69569 | 792 ft | 98 kts | 268° |
| 2026-04-25 14:36 | 46.10429 | -64.70598 | 913 ft | 105 kts | 266° |
| 2026-04-25 14:36 | 46.10272 | -64.71606 | 1138 ft | 104 kts | 262° |
| 2026-04-25 14:36 | 46.10035 | -64.72590 | 1379 ft | 101 kts | 256° |
| 2026-04-25 14:36 | 46.09963 | -64.73480 | 1698 ft | 87 kts | 275° |
| 2026-04-25 14:37 | 46.09932 | -64.74332 | 1938 ft | 87 kts | 272° |
| 2026-04-25 14:37 | 46.09879 | -64.75177 | 2226 ft | 82 kts | 270° |
| 2026-04-25 14:37 | 46.09772 | -64.76017 | 2435 ft | 84 kts | 273° |
| 2026-04-25 14:37 | 46.09827 | -64.76850 | 2656 ft | 83 kts | 282° |
| 2026-04-25 14:38 | 46.09925 | -64.77692 | 2817 ft | 88 kts | 285° |
| 2026-04-25 14:38 | 46.10066 | -64.78569 | 2964 ft | 92 kts | 287° |
| 2026-04-25 14:38 | 46.10264 | -64.79513 | 3004 ft | 102 kts | 293° |
| 2026-04-25 14:38 | 46.10856 | -64.79945 | 2998 ft | 122 kts | 18° |
| 2026-04-25 14:39 | 46.11087 | -64.78655 | 2961 ft | 145 kts | 84° |
| 2026-04-25 14:39 | 46.11198 | -64.77241 | 2995 ft | 140 kts | 64° |
| 2026-04-25 14:39 | 46.11588 | -64.75957 | 3001 ft | 139 kts | 57° |
| 2026-04-25 14:39 | 46.12030 | -64.74715 | 3001 ft | 139 kts | 55° |
| 2026-04-25 14:40 | 46.12484 | -64.73486 | 3001 ft | 140 kts | 54° |
| 2026-04-25 14:40 | 46.12952 | -64.72250 | 3001 ft | 140 kts | 53° |
| 2026-04-25 14:40 | 46.13649 | -64.71381 | 2998 ft | 126 kts | 9° |
| 2026-04-25 14:40 | 46.14460 | -64.71516 | 2998 ft | 116 kts | 325° |
| 2026-04-25 14:41 | 46.14877 | -64.72448 | 2998 ft | 116 kts | 281° |
| 2026-04-25 14:41 | 46.14665 | -64.73589 | 3001 ft | 123 kts | 248° |
| 2026-04-25 14:41 | 46.14225 | -64.74651 | 3001 ft | 123 kts | 247° |
| 2026-04-25 14:41 | 46.13845 | -64.75771 | 3001 ft | 122 kts | 253° |
| 2026-04-25 14:42 | 46.13563 | -64.76904 | 3001 ft | 120 kts | 258° |
| 2026-04-25 14:42 | 46.13484 | -64.77290 | 3001 ft | 120 kts | 260° |
| 2026-04-25 14:42 | 46.13177 | -64.79240 | 3001 ft | 119 kts | 265° |
| 2026-04-25 14:42 | 46.13044 | -64.80417 | 3001 ft | 119 kts | 266° |
| 2026-04-25 14:43 | 46.12936 | -64.81605 | 3001 ft | 118 kts | 268° |
| 2026-04-25 14:43 | 46.12845 | -64.82796 | 3001 ft | 118 kts | 269° |
| 2026-04-25 14:43 | 46.12769 | -64.83962 | 3001 ft | 118 kts | 269° |
| 2026-04-25 14:43 | 46.12700 | -64.85149 | 3001 ft | 118 kts | 270° |
| 2026-04-25 14:44 | 46.12637 | -64.86329 | 3001 ft | 117 kts | 270° |
| 2026-04-25 14:44 | 46.12598 | -64.87116 | 3001 ft | 117 kts | 270° |
| 2026-04-25 14:44 | 46.12524 | -64.88685 | 3001 ft | 117 kts | 271° |
| 2026-04-25 14:44 | 46.12472 | -64.89859 | 3001 ft | 117 kts | 271° |
| 2026-04-25 14:45 | 46.12421 | -64.91046 | 3001 ft | 117 kts | 271° |
| 2026-04-25 14:45 | 46.12371 | -64.92220 | 3001 ft | 117 kts | 271° |
| 2026-04-25 14:45 | 46.12338 | -64.93005 | 3001 ft | 117 kts | 271° |
| 2026-04-25 14:45 | 46.12274 | -64.94565 | 3001 ft | 117 kts | 271° |
| 2026-04-25 14:46 | 46.12225 | -64.95740 | 3001 ft | 117 kts | 271° |
| 2026-04-25 14:46 | 46.12177 | -64.96907 | 3001 ft | 116 kts | 271° |
| 2026-04-25 14:46 | 46.11982 | -64.98058 | 2996 ft | 124 kts | 242° |
| 2026-04-25 14:46 | 46.11220 | -64.98718 | 2997 ft | 139 kts | 198° |
| 2026-04-25 14:47 | 46.10228 | -64.98731 | 3001 ft | 143 kts | 184° |
| 2026-04-25 14:47 | 46.09903 | -64.98704 | 3001 ft | 143 kts | 183° |
| 2026-04-25 14:47 | 46.08254 | -64.98548 | 3001 ft | 143 kts | 183° |
| 2026-04-25 14:47 | 46.07260 | -64.98452 | 3001 ft | 143 kts | 183° |
| 2026-04-25 14:48 | 46.06256 | -64.98356 | 3001 ft | 143 kts | 183° |
| 2026-04-25 14:48 | 46.05254 | -64.98260 | 3001 ft | 143 kts | 183° |
| 2026-04-25 14:48 | 46.04261 | -64.98164 | 3001 ft | 143 kts | 183° |
| 2026-04-25 14:48 | 46.03287 | -64.97897 | 2997 ft | 149 kts | 160° |
| 2026-04-25 14:49 | 46.02485 | -64.96909 | 3001 ft | 151 kts | 134° |
| 2026-04-25 14:49 | 46.01775 | -64.95779 | 3001 ft | 152 kts | 133° |
| 2026-04-25 14:49 | 46.01068 | -64.94637 | 3001 ft | 152 kts | 133° |
| 2026-04-25 14:49 | 46.00373 | -64.93515 | 3001 ft | 152 kts | 133° |
| 2026-04-25 14:50 | 45.99661 | -64.92365 | 3001 ft | 152 kts | 133° |
| 2026-04-25 14:50 | 45.98960 | -64.91235 | 3001 ft | 151 kts | 133° |
| 2026-04-25 14:50 | 45.98257 | -64.90101 | 3001 ft | 151 kts | 133° |
| 2026-04-25 14:50 | 45.97557 | -64.88973 | 3001 ft | 151 kts | 133° |
| 2026-04-25 14:51 | 45.96856 | -64.87845 | 3001 ft | 151 kts | 133° |
| 2026-04-25 14:51 | 45.96152 | -64.86711 | 3001 ft | 151 kts | 133° |
| 2026-04-25 14:51 | 45.95446 | -64.85576 | 3001 ft | 151 kts | 133° |
| 2026-04-25 14:51 | 45.94743 | -64.84446 | 3001 ft | 151 kts | 133° |
| 2026-04-25 14:52 | 45.94045 | -64.83326 | 3001 ft | 151 kts | 133° |
| 2026-04-25 14:52 | 45.93342 | -64.82197 | 3001 ft | 151 kts | 133° |
| 2026-04-25 14:52 | 45.92646 | -64.81081 | 3002 ft | 151 kts | 133° |
| 2026-04-25 14:52 | 45.92412 | -64.80706 | 3002 ft | 151 kts | 133° |
| 2026-04-25 14:53 | 45.91238 | -64.78825 | 3002 ft | 151 kts | 133° |
| 2026-04-25 14:53 | 45.90544 | -64.77712 | 3002 ft | 151 kts | 133° |
| 2026-04-25 14:53 | 45.89836 | -64.76578 | 3001 ft | 151 kts | 133° |
| 2026-04-25 14:53 | 45.89140 | -64.75465 | 2999 ft | 151 kts | 133° |
| 2026-04-25 14:54 | 45.88444 | -64.74351 | 2999 ft | 150 kts | 133° |
| 2026-04-25 14:54 | 45.87738 | -64.73221 | 2999 ft | 150 kts | 133° |
| 2026-04-25 14:54 | 45.87041 | -64.72105 | 2999 ft | 150 kts | 133° |
| 2026-04-25 14:54 | 45.86340 | -64.70984 | 2999 ft | 150 kts | 133° |
| 2026-04-25 14:55 | 45.85641 | -64.69867 | 2999 ft | 150 kts | 133° |
| 2026-04-25 14:55 | 45.84946 | -64.68755 | 2999 ft | 150 kts | 133° |
| 2026-04-25 14:55 | 45.84244 | -64.67632 | 2999 ft | 150 kts | 133° |
| 2026-04-25 14:55 | 45.83553 | -64.66528 | 3000 ft | 150 kts | 133° |
| 2026-04-25 14:56 | 45.82845 | -64.65396 | 3000 ft | 150 kts | 133° |
| 2026-04-25 14:56 | 45.82147 | -64.64281 | 3000 ft | 150 kts | 133° |
| 2026-04-25 14:56 | 45.81452 | -64.63170 | 3000 ft | 150 kts | 133° |
| 2026-04-25 14:56 | 45.80756 | -64.62058 | 3000 ft | 150 kts | 133° |
| 2026-04-25 14:57 | 45.80057 | -64.60943 | 3000 ft | 150 kts | 133° |
| 2026-04-25 14:57 | 45.79350 | -64.59813 | 3000 ft | 150 kts | 133° |
| 2026-04-25 14:57 | 45.78652 | -64.58700 | 3000 ft | 150 kts | 133° |
| 2026-04-25 14:57 | 45.77956 | -64.57588 | 3000 ft | 150 kts | 133° |
| 2026-04-25 14:58 | 45.77247 | -64.56458 | 3000 ft | 150 kts | 133° |
| 2026-04-25 14:58 | 45.76553 | -64.55349 | 3000 ft | 150 kts | 133° |
| 2026-04-25 14:58 | 45.75852 | -64.54232 | 3000 ft | 150 kts | 133° |
| 2026-04-25 14:58 | 45.75148 | -64.53110 | 3000 ft | 150 kts | 133° |
| 2026-04-25 14:59 | 45.74445 | -64.51989 | 3000 ft | 150 kts | 133° |
| 2026-04-25 14:59 | 45.73743 | -64.50871 | 3000 ft | 150 kts | 133° |
| 2026-04-25 14:59 | 45.73046 | -64.49758 | 3000 ft | 150 kts | 133° |
| 2026-04-25 14:59 | 45.72342 | -64.48636 | 3000 ft | 150 kts | 133° |
| 2026-04-25 15:00 | 45.71648 | -64.47531 | 3000 ft | 150 kts | 133° |
| 2026-04-25 15:00 | 45.70938 | -64.46401 | 3000 ft | 150 kts | 133° |
| 2026-04-25 15:00 | 45.70245 | -64.45297 | 3000 ft | 150 kts | 132° |
| 2026-04-25 15:00 | 45.69544 | -64.44181 | 3001 ft | 150 kts | 132° |
| 2026-04-25 15:01 | 45.68840 | -64.43060 | 3001 ft | 151 kts | 132° |
| 2026-04-25 15:01 | 45.68139 | -64.41946 | 3001 ft | 151 kts | 132° |
| 2026-04-25 15:01 | 45.67440 | -64.40833 | 3001 ft | 151 kts | 132° |
| 2026-04-25 15:01 | 45.66741 | -64.39721 | 3001 ft | 151 kts | 132° |
| 2026-04-25 15:02 | 45.66038 | -64.38602 | 3001 ft | 151 kts | 132° |
| 2026-04-25 15:02 | 45.65344 | -64.37499 | 3001 ft | 151 kts | 132° |
| 2026-04-25 15:02 | 45.64637 | -64.36375 | 3001 ft | 151 kts | 132° |
| 2026-04-25 15:02 | 45.63937 | -64.35262 | 3014 ft | 149 kts | 132° |
| 2026-04-25 15:03 | 45.63255 | -64.34173 | 3073 ft | 147 kts | 133° |
| 2026-04-25 15:03 | 45.62567 | -64.33072 | 3080 ft | 148 kts | 133° |
| 2026-04-25 15:03 | 45.61879 | -64.31970 | 3081 ft | 149 kts | 133° |
| 2026-04-25 15:03 | 45.61181 | -64.30852 | 3081 ft | 150 kts | 133° |
| 2026-04-25 15:04 | 45.60492 | -64.29749 | 3081 ft | 150 kts | 133° |
| 2026-04-25 15:04 | 45.59789 | -64.28624 | 3081 ft | 150 kts | 133° |
| 2026-04-25 15:04 | 45.59099 | -64.27519 | 3081 ft | 150 kts | 133° |
| 2026-04-25 15:04 | 45.58404 | -64.26403 | 3081 ft | 150 kts | 133° |
| 2026-04-25 15:05 | 45.57713 | -64.25291 | 3081 ft | 150 kts | 133° |
| 2026-04-25 15:05 | 45.57012 | -64.24159 | 3080 ft | 150 kts | 133° |
| 2026-04-25 15:05 | 45.56321 | -64.23042 | 3079 ft | 150 kts | 133° |
| 2026-04-25 15:06 | 45.54933 | -64.20792 | 3075 ft | 151 kts | 133° |
| 2026-04-25 15:06 | 45.54243 | -64.19667 | 3072 ft | 151 kts | 133° |
| 2026-04-25 15:06 | 45.53455 | -64.18691 | 3066 ft | 148 kts | 156° |
| 2026-04-25 15:06 | 45.52512 | -64.18096 | 3066 ft | 147 kts | 162° |
| 2026-04-25 15:07 | 45.51571 | -64.17535 | 3063 ft | 147 kts | 163° |
| 2026-04-25 15:07 | 45.50626 | -64.16972 | 3059 ft | 148 kts | 163° |
| 2026-04-25 15:07 | 45.49663 | -64.16397 | 3023 ft | 150 kts | 163° |
| 2026-04-25 15:07 | 45.48692 | -64.15836 | 3000 ft | 151 kts | 162° |
| 2026-04-25 15:08 | 45.47719 | -64.15289 | 3001 ft | 151 kts | 162° |
| 2026-04-25 15:08 | 45.46740 | -64.14720 | 2997 ft | 151 kts | 164° |
| 2026-04-25 15:08 | 45.45761 | -64.14159 | 2994 ft | 152 kts | 162° |
| 2026-04-25 15:08 | 45.44788 | -64.13609 | 2991 ft | 152 kts | 163° |
| 2026-04-25 15:09 | 45.43805 | -64.13026 | 2996 ft | 150 kts | 163° |
| 2026-04-25 15:09 | 45.42840 | -64.12478 | 2989 ft | 151 kts | 162° |
| 2026-04-25 15:09 | 45.40895 | -64.11341 | 2999 ft | 150 kts | 162° |
| 2026-04-25 15:10 | 45.39922 | -64.10792 | 3004 ft | 151 kts | 163° |
| 2026-04-25 15:10 | 45.38949 | -64.10236 | 2993 ft | 153 kts | 162° |
| 2026-04-25 15:10 | 45.36997 | -64.09096 | 2991 ft | 152 kts | 163° |
| 2026-04-25 15:11 | 45.36015 | -64.08544 | 3000 ft | 152 kts | 162° |
| 2026-04-25 15:11 | 45.35026 | -64.07986 | 2996 ft | 152 kts | 165° |
| 2026-04-25 15:11 | 45.34054 | -64.07407 | 2992 ft | 152 kts | 161° |
| 2026-04-25 15:12 | 45.32090 | -64.06268 | 3004 ft | 154 kts | 161° |
| 2026-04-25 15:12 | 45.31102 | -64.05711 | 2995 ft | 152 kts | 162° |
| 2026-04-25 15:12 | 45.30112 | -64.05154 | 3001 ft | 152 kts | 161° |
| 2026-04-25 15:12 | 45.29792 | -64.04966 | 3000 ft | 152 kts | 164° |
| 2026-04-25 15:13 | 45.28161 | -64.03983 | 2994 ft | 152 kts | 162° |
| 2026-04-25 15:13 | 45.26212 | -64.02859 | 3001 ft | 150 kts | 162° |
| 2026-04-25 15:13 | 45.25248 | -64.02286 | 3000 ft | 152 kts | 164° |
| 2026-04-25 15:14 | 45.24256 | -64.01719 | 2997 ft | 151 kts | 163° |
| 2026-04-25 15:14 | 45.23255 | -64.01139 | 2997 ft | 151 kts | 163° |
| 2026-04-25 15:14 | 45.22253 | -64.00565 | 2993 ft | 150 kts | 163° |
| 2026-04-25 15:14 | 45.21281 | -63.99991 | 3002 ft | 151 kts | 162° |
| 2026-04-25 15:15 | 45.20300 | -63.99441 | 3002 ft | 151 kts | 163° |
| 2026-04-25 15:15 | 45.19314 | -63.98888 | 3001 ft | 153 kts | 162° |
| 2026-04-25 15:15 | 45.18343 | -63.98325 | 3005 ft | 152 kts | 164° |
| 2026-04-25 15:15 | 45.17341 | -63.97758 | 2995 ft | 152 kts | 163° |
| 2026-04-25 15:16 | 45.16354 | -63.97214 | 2996 ft | 153 kts | 160° |
| 2026-04-25 15:16 | 45.15368 | -63.96667 | 3003 ft | 152 kts | 163° |
| 2026-04-25 15:16 | 45.13428 | -63.95540 | 3000 ft | 149 kts | 162° |
| 2026-04-25 15:17 | 45.11478 | -63.94403 | 3004 ft | 151 kts | 164° |
| 2026-04-25 15:17 | 45.10513 | -63.93841 | 2995 ft | 151 kts | 163° |
| 2026-04-25 15:17 | 45.09527 | -63.93261 | 3005 ft | 151 kts | 162° |
| 2026-04-25 15:18 | 45.08559 | -63.92704 | 3004 ft | 151 kts | 164° |
| 2026-04-25 15:18 | 45.06567 | -63.92572 | 2995 ft | 153 kts | 159° |
| 2026-04-25 15:18 | 45.05806 | -63.91531 | 2997 ft | 156 kts | 117° |
| 2026-04-25 15:19 | 45.05586 | -63.90059 | 2996 ft | 151 kts | 90° |
| 2026-04-25 15:19 | 45.05539 | -63.89579 | 2996 ft | 152 kts | 95° |
| 2026-04-25 15:19 | 45.04998 | -63.87176 | 3005 ft | 155 kts | 112° |
| 2026-04-25 15:19 | 45.04530 | -63.85788 | 2999 ft | 156 kts | 114° |
| 2026-04-25 15:20 | 45.04029 | -63.84425 | 2988 ft | 157 kts | 116° |
| 2026-04-25 15:20 | 45.03543 | -63.83135 | 2853 ft | 140 kts | 115° |
| 2026-04-25 15:20 | 45.03102 | -63.81969 | 2695 ft | 127 kts | 114° |
| 2026-04-25 15:20 | 45.02698 | -63.80897 | 2452 ft | 122 kts | 116° |
| 2026-04-25 15:21 | 45.02308 | -63.79859 | 2234 ft | 120 kts | 115° |
| 2026-04-25 15:21 | 45.01913 | -63.78820 | 2035 ft | 116 kts | 114° |
| 2026-04-25 15:21 | 45.01565 | -63.77887 | 1990 ft | 97 kts | 115° |
| 2026-04-25 15:21 | 45.01268 | -63.77121 | 1962 ft | 81 kts | 113° |
| 2026-04-25 15:22 | 45.01105 | -63.76414 | 1873 ft | 73 kts | 76° |
| 2026-04-25 15:22 | 45.01215 | -63.75816 | 1709 ft | 56 kts | 16° |
| 2026-04-25 15:22 | 45.01269 | -63.76043 | 1451 ft | 89 kts | 211° |
| 2026-04-25 15:22 | 45.00923 | -63.75477 | 1232 ft | 78 kts | 61° |
| 2026-04-25 15:23 | 45.00727 | -63.74807 | 1471 ft | 74 kts | 116° |
| 2026-04-25 15:23 | 45.00308 | -63.74213 | 1600 ft | 92 kts | 128° |
| 2026-04-25 15:23 | 44.99953 | -63.73375 | 1823 ft | 97 kts | 97° |
| 2026-04-25 15:23 | 44.99636 | -63.72481 | 2005 ft | 112 kts | 115° |
| 2026-04-25 15:24 | 44.99186 | -63.71423 | 2015 ft | 134 kts | 123° |
| 2026-04-25 15:24 | 44.98609 | -63.70305 | 2014 ft | 146 kts | 123° |
| 2026-04-25 15:24 | 44.97995 | -63.69152 | 1994 ft | 151 kts | 122° |
| 2026-04-25 15:24 | 44.97781 | -63.68751 | 1993 ft | 152 kts | 123° |
| 2026-04-25 15:25 | 44.96770 | -63.66852 | 1798 ft | 134 kts | 121° |
| 2026-04-25 15:25 | 44.96241 | -63.65842 | 1787 ft | 122 kts | 121° |
| 2026-04-25 15:25 | 44.95713 | -63.64825 | 1751 ft | 132 kts | 121° |
| 2026-04-25 15:25 | 44.95159 | -63.63762 | 1667 ft | 136 kts | 120° |
| 2026-04-25 15:26 | 44.94590 | -63.62677 | 1565 ft | 139 kts | 120° |
| 2026-04-25 15:26 | 44.94015 | -63.61581 | 1505 ft | 138 kts | 120° |
| 2026-04-25 15:26 | 44.93451 | -63.60512 | 1492 ft | 133 kts | 119° |
| 2026-04-25 15:26 | 44.92910 | -63.59475 | 1490 ft | 130 kts | 118° |
| 2026-04-25 15:27 | 44.92370 | -63.58448 | 1492 ft | 129 kts | 118° |
| 2026-04-25 15:27 | 44.91839 | -63.57439 | 1494 ft | 128 kts | 120° |
| 2026-04-25 15:27 | 44.90781 | -63.55423 | 1494 ft | 127 kts | 118° |
| 2026-04-25 15:28 | 44.90469 | -63.54390 | 1453 ft | 109 kts | 85° |
| 2026-04-25 15:28 | 44.90350 | -63.53286 | 1287 ft | 111 kts | 88° |
| 2026-04-25 15:28 | 44.90151 | -63.52314 | 1198 ft | 97 kts | 95° |
| 2026-04-25 15:28 | 44.89852 | -63.51446 | 1096 ft | 100 kts | 105° |
| 2026-04-25 15:29 | 44.89543 | -63.50582 | 1036 ft | 97 kts | 101° |
| 2026-04-25 15:29 | 44.89310 | -63.49721 | 1089 ft | 97 kts | 94° |
| 2026-04-25 15:29 | 44.89114 | -63.48740 | 1172 ft | 99 kts | 92° |
| 2026-04-25 15:29 | 44.89013 | -63.47762 | 1235 ft | 103 kts | 82° |
| 2026-04-25 15:30 | 44.88826 | -63.46752 | 1363 ft | 106 kts | 86° |
| 2026-04-25 15:30 | 44.88401 | -63.46227 | 1619 ft | 89 kts | 225° |
| 2026-04-25 15:30 | 44.87927 | -63.46847 | 1365 ft | 85 kts | 229° |
| 2026-04-25 15:30 | 44.87605 | -63.47343 | 1279 ft | 57 kts | 274° |
| 2026-04-25 15:31 | 44.87535 | -63.47945 | 1101 ft | 64 kts | 297° |
| 2026-04-25 15:31 | 44.87683 | -63.48439 | 910 ft | 53 kts | 316° |
| 2026-04-25 15:31 | 44.87918 | -63.48893 | 799 ft | 62 kts | 319° |
| 2026-04-25 15:31 | 44.88132 | -63.49298 | 647 ft | 57 kts | 309° |
| 2026-04-25 15:32 | 44.88332 | -63.49671 | 515 ft | 35 kts | 323° |
| 2026-04-25 15:32 | 44.88472 | -63.49978 | 477 ft | 40 kts | 316° |
| 2026-04-25 15:32 | 44.88608 | -63.50143 | 459 ft | 6 kts | 308° |
| 2026-04-25 15:33 | 44.88677 | -63.50328 | 450 ft | 12 kts | 291° |
| 2026-04-25 15:33 | 44.88722 | -63.50452 | 447 ft | 13 kts | 297° |
| 2026-04-25 15:33 | 44.88716 | -63.50614 | 446 ft | 24 kts | 232° |
| 2026-04-25 15:33 | 44.88640 | -63.50737 | 448 ft | 12 kts | 282° |
| 2026-04-25 15:34 | 44.88679 | -63.50820 | 446 ft | 6 kts | 317° |
| 2026-04-25 15:34 | 44.88684 | -63.50829 | 446 ft | 0 kts | 299° |
| 2026-04-25 15:34 | 44.88720 | -63.50941 | 445 ft | 32 kts | 284° |
| 2026-04-25 15:34 | 44.88720 | -63.51030 | 443 ft | 23 kts | 253° |
| 2026-04-25 15:35 | 44.88610 | -63.51239 | 443 ft | 13 kts | 163° |
| 2026-04-25 15:35 | 44.88515 | -63.51214 | 443 ft | 16 kts | 161° |
| 2026-04-25 15:35 | 44.88413 | -63.51231 | 445 ft | 14 kts | 235° |
| 2026-04-25 15:36 | 44.88248 | -63.51411 | 442 ft | 32 kts | 225° |
| 2026-04-25 15:36 | 44.88186 | -63.51553 | 443 ft | 11 kts | 240° |
| 2026-04-25 15:36 | 44.88148 | -63.51611 | 444 ft | 9 kts | 267° |
| 2026-04-25 15:37 | 44.88157 | -63.51680 | 444 ft | 4 kts | 283° |
| 2026-04-25 15:37 | 44.88164 | -63.51703 | 443 ft | 0 kts | 308° |
| 2026-04-25 15:37 | 44.88165 | -63.51703 | 443 ft | 0 kts | 308° |